sensor_id;sensor_type;location;lat;lon;timestamp;temperature;humidity
54930;DHT22;40833;53.238;6.576;2023-03-29T00:00:39;5.30;99.90
54930;DHT22;40833;53.238;6.576;2023-03-29T00:03:05;5.30;99.90
54930;DHT22;40833;53.238;6.576;2023-03-29T00:05:30;5.30;99.90
54930;DHT22;40833;53.238;6.576;2023-03-29T00:07:59;5.60;99.90
54930;DHT22;40833;53.238;6.576;2023-03-29T00:10:30;7.50;99.90
54930;DHT22;40833;53.238;6.576;2023-03-29T00:12:56;5.20;99.90
54930;DHT22;40833;53.238;6.576;2023-03-29T00:15:23;5.30;99.90
54930;DHT22;40833;53.238;6.576;2023-03-29T00:17:49;5.20;99.90
54930;DHT22;40833;53.238;6.576;2023-03-29T00:20:15;6.10;99.90
54930;DHT22;40833;53.238;6.576;2023-03-29T00:22:42;5.20;99.90
54930;DHT22;40833;53.238;6.576;2023-03-29T00:25:10;6.10;99.90
54930;DHT22;40833;53.238;6.576;2023-03-29T00:27:36;5.20;99.90
54930;DHT22;40833;53.238;6.576;2023-03-29T00:30:03;5.20;99.90
54930;DHT22;40833;53.238;6.576;2023-03-29T00:32:30;5.20;99.90
54930;DHT22;40833;53.238;6.576;2023-03-29T00:34:57;6.30;99.90
54930;DHT22;40833;53.238;6.576;2023-03-29T00:37:25;5.30;99.90
54930;DHT22;40833;53.238;6.576;2023-03-29T00:39:55;5.70;99.90
54930;DHT22;40833;53.238;6.576;2023-03-29T00:42:21;7.70;99.90
54930;DHT22;40833;53.238;6.576;2023-03-29T00:45:18;5.30;99.90
54930;DHT22;40833;53.238;6.576;2023-03-29T00:47:52;5.30;99.90
54930;DHT22;40833;53.238;6.576;2023-03-29T00:50:31;5.40;99.90
54930;DHT22;40833;53.238;6.576;2023-03-29T00:53:16;5.20;99.90
54930;DHT22;40833;53.238;6.576;2023-03-29T00:55:43;5.30;99.90
54930;DHT22;40833;53.238;6.576;2023-03-29T00:58:13;6.40;99.90
54930;DHT22;40833;53.238;6.576;2023-03-29T01:00:47;5.30;99.90
54930;DHT22;40833;53.238;6.576;2023-03-29T01:03:17;5.30;99.90
54930;DHT22;40833;53.238;6.576;2023-03-29T01:05:55;5.30;99.90
54930;DHT22;40833;53.238;6.576;2023-03-29T01:08:27;5.90;99.90
54930;DHT22;40833;53.238;6.576;2023-03-29T01:11:03;5.30;99.90
54930;DHT22;40833;53.238;6.576;2023-03-29T01:13:40;5.30;99.90
54930;DHT22;40833;53.238;6.576;2023-03-29T01:16:10;5.30;99.90
54930;DHT22;40833;53.238;6.576;2023-03-29T01:18:37;5.20;99.90
54930;DHT22;40833;53.238;6.576;2023-03-29T01:21:26;5.20;99.90
54930;DHT22;40833;53.238;6.576;2023-03-29T01:27:00;5.30;99.90
54930;DHT22;40833;53.238;6.576;2023-03-29T01:32:32;5.30;99.90
54930;DHT22;40833;53.238;6.576;2023-03-29T01:35:18;5.30;99.90
54930;DHT22;40833;53.238;6.576;2023-03-29T01:38:08;5.30;99.90
54930;DHT22;40833;53.238;6.576;2023-03-29T01:40:35;5.30;99.90
54930;DHT22;40833;53.238;6.576;2023-03-29T01:43:32;6.30;99.90
54930;DHT22;40833;53.238;6.576;2023-03-29T01:46:28;5.30;99.90
54930;DHT22;40833;53.238;6.576;2023-03-29T01:49:13;5.30;99.90
54930;DHT22;40833;53.238;6.576;2023-03-29T01:51:43;5.30;99.90
54930;DHT22;40833;53.238;6.576;2023-03-29T01:54:15;5.30;99.90
54930;DHT22;40833;53.238;6.576;2023-03-29T01:56:43;5.30;99.90
54930;DHT22;40833;53.238;6.576;2023-03-29T01:59:12;5.60;99.90
54930;DHT22;40833;53.238;6.576;2023-03-29T02:01:44;5.70;99.90
54930;DHT22;40833;53.238;6.576;2023-03-29T02:04:26;5.40;99.90
54930;DHT22;40833;53.238;6.576;2023-03-29T02:06:56;5.90;99.90
54930;DHT22;40833;53.238;6.576;2023-03-29T02:09:23;5.30;99.90
54930;DHT22;40833;53.238;6.576;2023-03-29T02:11:50;6.00;99.90
54930;DHT22;40833;53.238;6.576;2023-03-29T02:14:17;5.50;99.90
54930;DHT22;40833;53.238;6.576;2023-03-29T02:16:42;6.60;99.90
54930;DHT22;40833;53.238;6.576;2023-03-29T02:19:11;5.30;99.90
54930;DHT22;40833;53.238;6.576;2023-03-29T02:21:52;5.30;99.90
54930;DHT22;40833;53.238;6.576;2023-03-29T02:24:20;5.80;99.90
54930;DHT22;40833;53.238;6.576;2023-03-29T02:26:47;5.30;99.90
54930;DHT22;40833;53.238;6.576;2023-03-29T02:29:13;5.30;99.90
54930;DHT22;40833;53.238;6.576;2023-03-29T02:31:54;6.40;99.90
54930;DHT22;40833;53.238;6.576;2023-03-29T02:37:03;5.30;99.90
54930;DHT22;40833;53.238;6.576;2023-03-29T02:39:32;5.30;99.90
54930;DHT22;40833;53.238;6.576;2023-03-29T02:41:59;5.70;99.90
54930;DHT22;40833;53.238;6.576;2023-03-29T02:44:27;5.30;99.90
54930;DHT22;40833;53.238;6.576;2023-03-29T02:47:02;5.30;99.90
54930;DHT22;40833;53.238;6.576;2023-03-29T02:49:30;5.30;99.90
54930;DHT22;40833;53.238;6.576;2023-03-29T02:52:00;5.30;99.90
54930;DHT22;40833;53.238;6.576;2023-03-29T02:54:31;5.30;99.90
54930;DHT22;40833;53.238;6.576;2023-03-29T02:57:03;5.30;99.90
54930;DHT22;40833;53.238;6.576;2023-03-29T02:59:31;5.40;99.90
54930;DHT22;40833;53.238;6.576;2023-03-29T03:01:58;5.30;99.90
54930;DHT22;40833;53.238;6.576;2023-03-29T03:04:24;5.40;99.90
54930;DHT22;40833;53.238;6.576;2023-03-29T03:06:50;6.00;99.90
54930;DHT22;40833;53.238;6.576;2023-03-29T03:09:16;5.70;99.90
54930;DHT22;40833;53.238;6.576;2023-03-29T03:11:42;5.30;99.90
54930;DHT22;40833;53.238;6.576;2023-03-29T03:14:08;5.40;99.90
54930;DHT22;40833;53.238;6.576;2023-03-29T03:16:33;5.40;99.90
54930;DHT22;40833;53.238;6.576;2023-03-29T03:18:59;5.50;99.90
54930;DHT22;40833;53.238;6.576;2023-03-29T03:21:25;5.40;99.90
54930;DHT22;40833;53.238;6.576;2023-03-29T03:23:53;6.20;99.90
54930;DHT22;40833;53.238;6.576;2023-03-29T03:26:18;5.40;99.90
54930;DHT22;40833;53.238;6.576;2023-03-29T03:28:44;5.40;99.90
54930;DHT22;40833;53.238;6.576;2023-03-29T03:31:10;8.40;99.90
54930;DHT22;40833;53.238;6.576;2023-03-29T03:33:41;5.40;99.90
54930;DHT22;40833;53.238;6.576;2023-03-29T03:36:08;5.40;99.90
54930;DHT22;40833;53.238;6.576;2023-03-29T03:38:35;5.40;99.90
54930;DHT22;40833;53.238;6.576;2023-03-29T03:41:02;5.70;99.90
54930;DHT22;40833;53.238;6.576;2023-03-29T03:43:28;5.40;99.90
54930;DHT22;40833;53.238;6.576;2023-03-29T03:45:54;5.40;99.90
54930;DHT22;40833;53.238;6.576;2023-03-29T03:48:21;5.50;99.90
54930;DHT22;40833;53.238;6.576;2023-03-29T03:50:55;5.40;99.90
54930;DHT22;40833;53.238;6.576;2023-03-29T03:53:22;5.40;99.90
54930;DHT22;40833;53.238;6.576;2023-03-29T03:55:48;5.40;99.90
54930;DHT22;40833;53.238;6.576;2023-03-29T03:58:15;5.40;99.90
54930;DHT22;40833;53.238;6.576;2023-03-29T04:00:41;5.70;99.90
54930;DHT22;40833;53.238;6.576;2023-03-29T04:03:07;5.40;99.90
54930;DHT22;40833;53.238;6.576;2023-03-29T04:05:33;5.70;99.90
54930;DHT22;40833;53.238;6.576;2023-03-29T04:08:03;5.80;99.90
54930;DHT22;40833;53.238;6.576;2023-03-29T04:10:31;5.40;99.90
54930;DHT22;40833;53.238;6.576;2023-03-29T04:13:01;5.40;99.90
54930;DHT22;40833;53.238;6.576;2023-03-29T04:15:27;5.40;99.90
54930;DHT22;40833;53.238;6.576;2023-03-29T04:17:55;5.50;99.90
54930;DHT22;40833;53.238;6.576;2023-03-29T04:20:21;5.40;99.90
54930;DHT22;40833;53.238;6.576;2023-03-29T04:22:47;5.50;99.90
54930;DHT22;40833;53.238;6.576;2023-03-29T04:25:13;5.50;99.90
54930;DHT22;40833;53.238;6.576;2023-03-29T04:27:39;5.50;99.90
54930;DHT22;40833;53.238;6.576;2023-03-29T04:30:05;5.50;99.90
54930;DHT22;40833;53.238;6.576;2023-03-29T04:32:32;5.50;99.90
54930;DHT22;40833;53.238;6.576;2023-03-29T04:34:57;5.50;99.90
54930;DHT22;40833;53.238;6.576;2023-03-29T04:37:23;5.50;99.90
54930;DHT22;40833;53.238;6.576;2023-03-29T04:39:49;5.50;99.90
54930;DHT22;40833;53.238;6.576;2023-03-29T04:42:17;5.50;99.90
54930;DHT22;40833;53.238;6.576;2023-03-29T04:44:43;5.50;99.90
54930;DHT22;40833;53.238;6.576;2023-03-29T04:47:09;5.50;99.90
54930;DHT22;40833;53.238;6.576;2023-03-29T04:49:38;5.50;99.90
54930;DHT22;40833;53.238;6.576;2023-03-29T04:52:04;5.50;99.90
54930;DHT22;40833;53.238;6.576;2023-03-29T04:54:30;5.60;99.90
54930;DHT22;40833;53.238;6.576;2023-03-29T04:56:56;5.60;99.90
54930;DHT22;40833;53.238;6.576;2023-03-29T04:59:22;6.80;99.90
54930;DHT22;40833;53.238;6.576;2023-03-29T05:01:48;5.60;99.90
54930;DHT22;40833;53.238;6.576;2023-03-29T05:04:13;5.80;99.90
54930;DHT22;40833;53.238;6.576;2023-03-29T05:06:40;5.90;99.90
54930;DHT22;40833;53.238;6.576;2023-03-29T05:09:06;6.90;99.90
54930;DHT22;40833;53.238;6.576;2023-03-29T05:11:33;5.60;99.90
54930;DHT22;40833;53.238;6.576;2023-03-29T05:13:59;5.60;99.90
54930;DHT22;40833;53.238;6.576;2023-03-29T05:16:30;5.60;99.90
54930;DHT22;40833;53.238;6.576;2023-03-29T05:18:57;5.80;99.90
54930;DHT22;40833;53.238;6.576;2023-03-29T05:21:23;5.60;99.90
54930;DHT22;40833;53.238;6.576;2023-03-29T05:23:51;5.60;99.90
54930;DHT22;40833;53.238;6.576;2023-03-29T05:26:17;5.60;99.90
54930;DHT22;40833;53.238;6.576;2023-03-29T05:28:43;5.60;99.90
54930;DHT22;40833;53.238;6.576;2023-03-29T05:31:09;5.60;99.90
54930;DHT22;40833;53.238;6.576;2023-03-29T05:33:35;5.80;99.90
54930;DHT22;40833;53.238;6.576;2023-03-29T05:36:03;5.70;99.90
54930;DHT22;40833;53.238;6.576;2023-03-29T05:38:29;5.60;99.90
54930;DHT22;40833;53.238;6.576;2023-03-29T05:40:57;6.20;99.90
54930;DHT22;40833;53.238;6.576;2023-03-29T05:43:23;5.70;99.90
54930;DHT22;40833;53.238;6.576;2023-03-29T05:45:51;5.70;99.90
54930;DHT22;40833;53.238;6.576;2023-03-29T05:48:17;6.00;99.90
54930;DHT22;40833;53.238;6.576;2023-03-29T05:50:50;5.70;99.90
54930;DHT22;40833;53.238;6.576;2023-03-29T05:53:17;5.70;99.90
54930;DHT22;40833;53.238;6.576;2023-03-29T05:55:43;5.80;99.90
54930;DHT22;40833;53.238;6.576;2023-03-29T05:58:09;5.70;99.90
54930;DHT22;40833;53.238;6.576;2023-03-29T06:00:37;5.80;99.90
54930;DHT22;40833;53.238;6.576;2023-03-29T06:03:03;7.90;99.90
54930;DHT22;40833;53.238;6.576;2023-03-29T06:05:30;5.80;99.90
54930;DHT22;40833;53.238;6.576;2023-03-29T06:07:55;5.90;99.90
54930;DHT22;40833;53.238;6.576;2023-03-29T06:10:22;6.40;99.90
54930;DHT22;40833;53.238;6.576;2023-03-29T06:12:49;5.80;99.90
54930;DHT22;40833;53.238;6.576;2023-03-29T06:15:16;5.90;99.90
54930;DHT22;40833;53.238;6.576;2023-03-29T06:17:43;5.90;99.90
54930;DHT22;40833;53.238;6.576;2023-03-29T06:20:12;5.90;99.90
54930;DHT22;40833;53.238;6.576;2023-03-29T06:22:39;5.90;99.90
54930;DHT22;40833;53.238;6.576;2023-03-29T06:25:07;6.90;99.90
54930;DHT22;40833;53.238;6.576;2023-03-29T06:27:34;6.00;99.90
54930;DHT22;40833;53.238;6.576;2023-03-29T06:30:00;6.00;99.90
54930;DHT22;40833;53.238;6.576;2023-03-29T06:32:26;8.20;99.90
54930;DHT22;40833;53.238;6.576;2023-03-29T06:34:52;6.30;99.90
54930;DHT22;40833;53.238;6.576;2023-03-29T06:37:19;6.40;99.90
54930;DHT22;40833;53.238;6.576;2023-03-29T06:39:46;6.00;99.90
54930;DHT22;40833;53.238;6.576;2023-03-29T06:42:18;6.40;99.90
54930;DHT22;40833;53.238;6.576;2023-03-29T06:44:44;6.10;99.90
54930;DHT22;40833;53.238;6.576;2023-03-29T06:47:11;7.40;99.90
54930;DHT22;40833;53.238;6.576;2023-03-29T06:49:37;6.10;99.90
54930;DHT22;40833;53.238;6.576;2023-03-29T06:52:03;6.10;99.90
54930;DHT22;40833;53.238;6.576;2023-03-29T06:54:29;7.00;99.90
54930;DHT22;40833;53.238;6.576;2023-03-29T06:56:55;6.10;99.90
54930;DHT22;40833;53.238;6.576;2023-03-29T06:59:22;6.60;99.90
54930;DHT22;40833;53.238;6.576;2023-03-29T07:01:48;6.20;99.90
54930;DHT22;40833;53.238;6.576;2023-03-29T07:04:13;6.20;99.90
54930;DHT22;40833;53.238;6.576;2023-03-29T07:06:40;6.90;99.90
54930;DHT22;40833;53.238;6.576;2023-03-29T07:09:15;6.30;99.90
54930;DHT22;40833;53.238;6.576;2023-03-29T07:11:42;6.40;99.90
54930;DHT22;40833;53.238;6.576;2023-03-29T07:14:07;6.50;99.90
54930;DHT22;40833;53.238;6.576;2023-03-29T07:16:34;6.50;99.90
54930;DHT22;40833;53.238;6.576;2023-03-29T07:19:02;6.60;99.90
54930;DHT22;40833;53.238;6.576;2023-03-29T07:21:29;6.60;99.90
54930;DHT22;40833;53.238;6.576;2023-03-29T07:23:55;6.70;99.90
54930;DHT22;40833;53.238;6.576;2023-03-29T07:26:23;6.80;99.90
54930;DHT22;40833;53.238;6.576;2023-03-29T07:28:49;7.30;99.90
54930;DHT22;40833;53.238;6.576;2023-03-29T07:31:14;7.60;99.90
54930;DHT22;40833;53.238;6.576;2023-03-29T07:33:42;7.70;99.90
54930;DHT22;40833;53.238;6.576;2023-03-29T07:36:08;7.40;99.90
54930;DHT22;40833;53.238;6.576;2023-03-29T07:38:35;7.20;99.90
54930;DHT22;40833;53.238;6.576;2023-03-29T07:41:05;7.20;99.90
54930;DHT22;40833;53.238;6.576;2023-03-29T07:43:32;7.20;99.90
54930;DHT22;40833;53.238;6.576;2023-03-29T07:46:03;7.20;99.90
54930;DHT22;40833;53.238;6.576;2023-03-29T07:48:29;7.10;99.90
54930;DHT22;40833;53.238;6.576;2023-03-29T07:50:56;7.80;99.90
54930;DHT22;40833;53.238;6.576;2023-03-29T07:53:22;7.20;99.90
54930;DHT22;40833;53.238;6.576;2023-03-29T07:55:48;7.20;99.90
54930;DHT22;40833;53.238;6.576;2023-03-29T07:58:14;7.20;99.90
54930;DHT22;40833;53.238;6.576;2023-03-29T08:00:40;7.60;99.90
54930;DHT22;40833;53.238;6.576;2023-03-29T08:03:09;7.90;99.90
54930;DHT22;40833;53.238;6.576;2023-03-29T08:05:35;7.80;99.90
54930;DHT22;40833;53.238;6.576;2023-03-29T08:08:02;7.80;99.90
54930;DHT22;40833;53.238;6.576;2023-03-29T08:10:27;7.50;99.90
54930;DHT22;40833;53.238;6.576;2023-03-29T08:12:53;7.70;99.90
54930;DHT22;40833;53.238;6.576;2023-03-29T08:15:19;8.50;99.90
54930;DHT22;40833;53.238;6.576;2023-03-29T08:17:44;7.80;99.90
54930;DHT22;40833;53.238;6.576;2023-03-29T08:20:12;7.90;99.90
54930;DHT22;40833;53.238;6.576;2023-03-29T08:22:39;7.90;99.90
54930;DHT22;40833;53.238;6.576;2023-03-29T08:25:06;9.90;99.90
54930;DHT22;40833;53.238;6.576;2023-03-29T08:27:33;8.00;99.90
54930;DHT22;40833;53.238;6.576;2023-03-29T08:29:58;8.00;99.90
54930;DHT22;40833;53.238;6.576;2023-03-29T08:32:24;8.10;99.90
54930;DHT22;40833;53.238;6.576;2023-03-29T08:34:50;8.10;99.90
54930;DHT22;40833;53.238;6.576;2023-03-29T08:37:16;8.30;99.90
54930;DHT22;40833;53.238;6.576;2023-03-29T08:39:42;8.70;99.90
54930;DHT22;40833;53.238;6.576;2023-03-29T08:45:08;8.50;99.90
54930;DHT22;40833;53.238;6.576;2023-03-29T08:50:33;8.60;99.90
54930;DHT22;40833;53.238;6.576;2023-03-29T08:53:03;8.70;99.90
54930;DHT22;40833;53.238;6.576;2023-03-29T08:55:41;8.70;99.90
54930;DHT22;40833;53.238;6.576;2023-03-29T08:58:13;8.80;99.90
54930;DHT22;40833;53.238;6.576;2023-03-29T09:00:48;9.00;99.90
54930;DHT22;40833;53.238;6.576;2023-03-29T09:04:06;9.00;99.90
54930;DHT22;40833;53.238;6.576;2023-03-29T09:06:33;9.10;99.90
54930;DHT22;40833;53.238;6.576;2023-03-29T09:08:59;9.10;99.90
54930;DHT22;40833;53.238;6.576;2023-03-29T09:14:44;9.30;99.90
54930;DHT22;40833;53.238;6.576;2023-03-29T09:23:01;9.60;99.90
54930;DHT22;40833;53.238;6.576;2023-03-29T09:28:36;9.70;99.90
54930;DHT22;40833;53.238;6.576;2023-03-29T09:31:13;9.70;99.90
54930;DHT22;40833;53.238;6.576;2023-03-29T09:33:56;10.20;99.90
54930;DHT22;40833;53.238;6.576;2023-03-29T09:38:52;9.90;99.90
54930;DHT22;40833;53.238;6.576;2023-03-29T09:41:40;10.00;99.90
54930;DHT22;40833;53.238;6.576;2023-03-29T09:44:11;10.10;99.90
54930;DHT22;40833;53.238;6.576;2023-03-29T09:46:44;10.70;99.90
54930;DHT22;40833;53.238;6.576;2023-03-29T09:49:16;10.40;99.90
54930;DHT22;40833;53.238;6.576;2023-03-29T09:51:45;10.50;99.90
54930;DHT22;40833;53.238;6.576;2023-03-29T09:54:12;10.50;99.90
54930;DHT22;40833;53.238;6.576;2023-03-29T09:56:38;10.50;99.90
54930;DHT22;40833;53.238;6.576;2023-03-29T09:59:05;10.50;99.90
54930;DHT22;40833;53.238;6.576;2023-03-29T10:01:40;10.50;99.90
54930;DHT22;40833;53.238;6.576;2023-03-29T10:04:08;10.60;99.90
54930;DHT22;40833;53.238;6.576;2023-03-29T10:06:35;10.60;99.90
54930;DHT22;40833;53.238;6.576;2023-03-29T10:09:02;10.70;99.90
54930;DHT22;40833;53.238;6.576;2023-03-29T10:11:31;10.70;99.90
54930;DHT22;40833;53.238;6.576;2023-03-29T10:14:10;10.80;99.90
54930;DHT22;40833;53.238;6.576;2023-03-29T10:16:39;10.90;99.90
54930;DHT22;40833;53.238;6.576;2023-03-29T10:21:52;10.90;99.90
54930;DHT22;40833;53.238;6.576;2023-03-29T10:24:21;10.90;99.90
54930;DHT22;40833;53.238;6.576;2023-03-29T10:26:50;10.90;99.90
54930;DHT22;40833;53.238;6.576;2023-03-29T10:29:20;11.00;99.90
54930;DHT22;40833;53.238;6.576;2023-03-29T10:31:47;11.00;99.90
54930;DHT22;40833;53.238;6.576;2023-03-29T10:34:14;11.10;99.90
54930;DHT22;40833;53.238;6.576;2023-03-29T10:36:51;11.00;99.90
54930;DHT22;40833;53.238;6.576;2023-03-29T10:39:18;11.00;99.90
54930;DHT22;40833;53.238;6.576;2023-03-29T10:41:48;10.90;99.90
54930;DHT22;40833;53.238;6.576;2023-03-29T10:44:29;10.90;99.90
54930;DHT22;40833;53.238;6.576;2023-03-29T10:46:55;11.00;99.90
54930;DHT22;40833;53.238;6.576;2023-03-29T10:49:39;11.00;99.90
54930;DHT22;40833;53.238;6.576;2023-03-29T10:52:05;11.20;99.90
54930;DHT22;40833;53.238;6.576;2023-03-29T10:54:31;11.30;99.90
54930;DHT22;40833;53.238;6.576;2023-03-29T10:57:02;11.40;99.90
54930;DHT22;40833;53.238;6.576;2023-03-29T11:19:00;12.30;99.90
54930;DHT22;40833;53.238;6.576;2023-03-29T11:35:36;13.20;99.90
54930;DHT22;40833;53.238;6.576;2023-03-29T11:43:24;13.30;99.90
54930;DHT22;40833;53.238;6.576;2023-03-29T11:48:43;13.10;99.90
54930;DHT22;40833;53.238;6.576;2023-03-29T11:51:27;13.10;99.90
54930;DHT22;40833;53.238;6.576;2023-03-29T11:54:17;13.10;99.90
54930;DHT22;40833;53.238;6.576;2023-03-29T11:56:53;13.20;99.90
54930;DHT22;40833;53.238;6.576;2023-03-29T11:59:34;13.30;99.90
54930;DHT22;40833;53.238;6.576;2023-03-29T12:02:21;13.30;99.90
54930;DHT22;40833;53.238;6.576;2023-03-29T12:04:53;13.20;99.90
54930;DHT22;40833;53.238;6.576;2023-03-29T12:07:34;13.20;99.90
54930;DHT22;40833;53.238;6.576;2023-03-29T12:10:21;13.30;99.90
54930;DHT22;40833;53.238;6.576;2023-03-29T12:13:02;13.40;99.90
54930;DHT22;40833;53.238;6.576;2023-03-29T12:15:35;13.60;99.90
54930;DHT22;40833;53.238;6.576;2023-03-29T12:18:19;13.70;99.90
54930;DHT22;40833;53.238;6.576;2023-03-29T12:20:51;13.90;99.90
54930;DHT22;40833;53.238;6.576;2023-03-29T12:23:18;14.00;99.90
54930;DHT22;40833;53.238;6.576;2023-03-29T12:31:32;14.20;99.90
54930;DHT22;40833;53.238;6.576;2023-03-29T12:37:09;14.50;99.90
54930;DHT22;40833;53.238;6.576;2023-03-29T12:39:36;14.40;99.90
54930;DHT22;40833;53.238;6.576;2023-03-29T12:42:13;14.40;99.90
54930;DHT22;40833;53.238;6.576;2023-03-29T12:44:43;14.40;99.90
54930;DHT22;40833;53.238;6.576;2023-03-29T12:47:18;14.40;99.90
54930;DHT22;40833;53.238;6.576;2023-03-29T12:49:44;14.40;99.90
54930;DHT22;40833;53.238;6.576;2023-03-29T12:52:24;14.40;99.90
54930;DHT22;40833;53.238;6.576;2023-03-29T12:55:21;14.50;99.90
54930;DHT22;40833;53.238;6.576;2023-03-29T12:58:01;14.60;99.90
54930;DHT22;40833;53.238;6.576;2023-03-29T13:00:43;14.70;99.90
54930;DHT22;40833;53.238;6.576;2023-03-29T13:06:05;14.60;99.90
54930;DHT22;40833;53.238;6.576;2023-03-29T13:10:58;14.40;99.90
54930;DHT22;40833;53.238;6.576;2023-03-29T13:13:38;14.30;99.90
54930;DHT22;40833;53.238;6.576;2023-03-29T13:16:19;14.30;99.90
54930;DHT22;40833;53.238;6.576;2023-03-29T13:27:46;14.40;99.90
54930;DHT22;40833;53.238;6.576;2023-03-29T13:33:04;14.30;99.90
54930;DHT22;40833;53.238;6.576;2023-03-29T13:35:58;14.10;99.90
54930;DHT22;40833;53.238;6.576;2023-03-29T13:38:28;14.10;99.90
54930;DHT22;40833;53.238;6.576;2023-03-29T13:43:32;14.80;99.90
54930;DHT22;40833;53.238;6.576;2023-03-29T13:51:25;14.30;99.90
54930;DHT22;40833;53.238;6.576;2023-03-29T13:56:41;14.40;99.90
54930;DHT22;40833;53.238;6.576;2023-03-29T13:59:18;14.50;99.90
54930;DHT22;40833;53.238;6.576;2023-03-29T14:01:53;14.60;99.90
54930;DHT22;40833;53.238;6.576;2023-03-29T14:04:54;14.70;99.90
54930;DHT22;40833;53.238;6.576;2023-03-29T14:07:21;14.80;99.90
54930;DHT22;40833;53.238;6.576;2023-03-29T14:09:51;14.80;99.90
54930;DHT22;40833;53.238;6.576;2023-03-29T14:12:18;14.80;99.90
54930;DHT22;40833;53.238;6.576;2023-03-29T14:14:45;14.80;99.90
54930;DHT22;40833;53.238;6.576;2023-03-29T14:17:18;14.90;99.90
54930;DHT22;40833;53.238;6.576;2023-03-29T14:19:46;15.00;99.90
54930;DHT22;40833;53.238;6.576;2023-03-29T14:22:18;15.10;99.90
54930;DHT22;40833;53.238;6.576;2023-03-29T14:24:52;15.20;99.90
54930;DHT22;40833;53.238;6.576;2023-03-29T14:27:19;15.30;99.90
54930;DHT22;40833;53.238;6.576;2023-03-29T14:29:47;15.40;99.90
54930;DHT22;40833;53.238;6.576;2023-03-29T14:32:16;15.40;99.90
54930;DHT22;40833;53.238;6.576;2023-03-29T14:34:46;15.50;99.90
54930;DHT22;40833;53.238;6.576;2023-03-29T14:37:20;15.60;99.90
54930;DHT22;40833;53.238;6.576;2023-03-29T14:39:46;15.70;99.90
54930;DHT22;40833;53.238;6.576;2023-03-29T14:42:19;15.60;99.90
54930;DHT22;40833;53.238;6.576;2023-03-29T14:44:47;15.50;99.90
54930;DHT22;40833;53.238;6.576;2023-03-29T14:47:34;15.30;99.90
54930;DHT22;40833;53.238;6.576;2023-03-29T14:52:29;15.10;99.90
54930;DHT22;40833;53.238;6.576;2023-03-29T14:54:58;15.10;99.90
54930;DHT22;40833;53.238;6.576;2023-03-29T14:57:26;15.00;99.90
54930;DHT22;40833;53.238;6.576;2023-03-29T15:00:03;15.00;99.90
54930;DHT22;40833;53.238;6.576;2023-03-29T15:02:48;15.00;99.90
54930;DHT22;40833;53.238;6.576;2023-03-29T15:05:23;15.00;99.90
54930;DHT22;40833;53.238;6.576;2023-03-29T15:07:50;15.00;99.90
54930;DHT22;40833;53.238;6.576;2023-03-29T15:10:18;15.00;99.90
54930;DHT22;40833;53.238;6.576;2023-03-29T15:12:45;15.00;99.90
54930;DHT22;40833;53.238;6.576;2023-03-29T15:15:12;15.00;99.90
54930;DHT22;40833;53.238;6.576;2023-03-29T15:17:39;15.10;99.90
54930;DHT22;40833;53.238;6.576;2023-03-29T15:20:11;15.20;99.90
54930;DHT22;40833;53.238;6.576;2023-03-29T15:22:40;15.20;99.90
54930;DHT22;40833;53.238;6.576;2023-03-29T15:25:17;15.20;99.90
54930;DHT22;40833;53.238;6.576;2023-03-29T15:27:53;15.20;99.90
54930;DHT22;40833;53.238;6.576;2023-03-29T15:30:19;15.30;99.90
54930;DHT22;40833;53.238;6.576;2023-03-29T15:32:45;15.30;99.90
54930;DHT22;40833;53.238;6.576;2023-03-29T15:35:22;15.20;99.90
54930;DHT22;40833;53.238;6.576;2023-03-29T15:37:48;15.10;99.90
54930;DHT22;40833;53.238;6.576;2023-03-29T15:40:15;15.00;99.90
54930;DHT22;40833;53.238;6.576;2023-03-29T15:42:41;14.80;99.90
54930;DHT22;40833;53.238;6.576;2023-03-29T15:45:14;14.70;99.90
54930;DHT22;40833;53.238;6.576;2023-03-29T15:47:40;14.60;99.90
54930;DHT22;40833;53.238;6.576;2023-03-29T15:50:05;14.50;99.90
54930;DHT22;40833;53.238;6.576;2023-03-29T15:52:31;14.50;99.90
54930;DHT22;40833;53.238;6.576;2023-03-29T15:54:57;14.40;99.90
54930;DHT22;40833;53.238;6.576;2023-03-29T15:57:22;14.40;99.90
54930;DHT22;40833;53.238;6.576;2023-03-29T15:59:48;14.30;99.90
54930;DHT22;40833;53.238;6.576;2023-03-29T16:02:14;14.30;99.90
54930;DHT22;40833;53.238;6.576;2023-03-29T16:04:41;14.20;99.90
54930;DHT22;40833;53.238;6.576;2023-03-29T16:07:12;14.10;99.90
54930;DHT22;40833;53.238;6.576;2023-03-29T16:09:38;14.10;99.90
54930;DHT22;40833;53.238;6.576;2023-03-29T16:12:04;14.00;99.90
54930;DHT22;40833;53.238;6.576;2023-03-29T16:14:30;14.00;99.90
54930;DHT22;40833;53.238;6.576;2023-03-29T16:16:57;14.00;99.90
54930;DHT22;40833;53.238;6.576;2023-03-29T16:19:24;14.00;99.90
54930;DHT22;40833;53.238;6.576;2023-03-29T16:21:51;13.90;99.90
54930;DHT22;40833;53.238;6.576;2023-03-29T16:24:23;13.90;99.90
54930;DHT22;40833;53.238;6.576;2023-03-29T16:26:49;13.80;99.90
54930;DHT22;40833;53.238;6.576;2023-03-29T16:29:16;13.80;99.90
54930;DHT22;40833;53.238;6.576;2023-03-29T16:31:46;13.80;99.90
54930;DHT22;40833;53.238;6.576;2023-03-29T16:34:13;13.70;99.90
54930;DHT22;40833;53.238;6.576;2023-03-29T16:36:40;13.70;99.90
54930;DHT22;40833;53.238;6.576;2023-03-29T16:39:06;13.60;99.90
54930;DHT22;40833;53.238;6.576;2023-03-29T16:41:32;13.60;99.90
54930;DHT22;40833;53.238;6.576;2023-03-29T16:43:58;13.50;99.90
54930;DHT22;40833;53.238;6.576;2023-03-29T16:46:24;13.50;99.90
54930;DHT22;40833;53.238;6.576;2023-03-29T16:48:50;13.40;99.90
54930;DHT22;40833;53.238;6.576;2023-03-29T16:51:19;13.40;99.90
54930;DHT22;40833;53.238;6.576;2023-03-29T16:53:45;13.30;99.90
54930;DHT22;40833;53.238;6.576;2023-03-29T16:56:18;13.30;99.90
54930;DHT22;40833;53.238;6.576;2023-03-29T16:58:44;13.30;99.90
54930;DHT22;40833;53.238;6.576;2023-03-29T17:01:15;13.20;99.90
54930;DHT22;40833;53.238;6.576;2023-03-29T17:03:42;13.20;99.90
54930;DHT22;40833;53.238;6.576;2023-03-29T17:06:09;13.10;99.90
54930;DHT22;40833;53.238;6.576;2023-03-29T17:08:35;13.00;99.90
54930;DHT22;40833;53.238;6.576;2023-03-29T17:11:02;13.00;99.90
54930;DHT22;40833;53.238;6.576;2023-03-29T17:13:28;12.90;99.90
54930;DHT22;40833;53.238;6.576;2023-03-29T17:15:54;12.80;99.90
54930;DHT22;40833;53.238;6.576;2023-03-29T17:18:27;12.70;99.90
54930;DHT22;40833;53.238;6.576;2023-03-29T17:20:57;12.60;99.90
54930;DHT22;40833;53.238;6.576;2023-03-29T17:23:24;12.60;99.90
54930;DHT22;40833;53.238;6.576;2023-03-29T17:25:49;12.60;99.90
54930;DHT22;40833;53.238;6.576;2023-03-29T17:28:15;12.50;99.90
54930;DHT22;40833;53.238;6.576;2023-03-29T17:30:43;12.50;99.90
54930;DHT22;40833;53.238;6.576;2023-03-29T17:33:10;12.40;99.90
54930;DHT22;40833;53.238;6.576;2023-03-29T17:35:41;12.40;99.90
54930;DHT22;40833;53.238;6.576;2023-03-29T17:38:07;12.40;99.90
54930;DHT22;40833;53.238;6.576;2023-03-29T17:40:33;12.30;99.90
54930;DHT22;40833;53.238;6.576;2023-03-29T17:42:58;12.30;99.90
54930;DHT22;40833;53.238;6.576;2023-03-29T17:45:24;12.20;99.90
54930;DHT22;40833;53.238;6.576;2023-03-29T17:47:50;12.20;99.90